createdAt,value
2019-03-31T00:01:07.527Z,21.55
2019-03-31T00:03:26.940Z,21.35
2019-03-31T00:05:55.362Z,21.65
2019-03-31T00:08:23.814Z,21.40
2019-03-31T00:10:52.252Z,20.43
2019-03-31T00:13:20.951Z,19.60
2019-03-31T00:15:49.392Z,20.55
2019-03-31T00:18:17.825Z,21.05
2019-03-31T00:20:46.267Z,20.12
2019-03-31T00:23:14.705Z,21.23
2019-03-31T00:25:44.781Z,19.87
2019-03-31T00:28:13.211Z,19.77
2019-03-31T00:30:41.659Z,21.10
2019-03-31T00:33:10.092Z,20.52
2019-03-31T00:35:38.545Z,20.95
2019-03-31T00:38:06.969Z,20.20
2019-03-31T00:40:35.464Z,20.82
2019-03-31T00:43:03.895Z,21.52
2019-03-31T00:45:32.403Z,21.10
2019-03-31T00:48:00.840Z,21.67
2019-03-31T00:50:29.288Z,20.50
2019-03-31T00:53:17.053Z,21.12
2019-03-31T00:55:45.488Z,22.05
2019-03-31T00:58:13.941Z,21.57
2019-03-31T01:00:46.448Z,21.93
2019-03-31T01:03:15.781Z,21.25
2019-03-31T01:06:05.084Z,21.33
2019-03-31T01:08:34.606Z,21.15
2019-03-31T01:11:07.057Z,21.37
2019-03-31T01:13:35.624Z,20.48
2019-03-31T01:16:04.062Z,20.53
2019-03-31T01:18:32.556Z,20.20
2019-03-31T01:21:01.060Z,20.02
2019-03-31T01:23:29.483Z,19.37
2019-03-31T01:26:00.516Z,19.35
2019-03-31T01:28:28.231Z,20.25
2019-03-31T01:30:56.963Z,19.20
2019-03-31T01:33:26.210Z,20.70
2019-03-31T01:35:54.682Z,20.57
2019-03-31T01:38:23.174Z,19.80
2019-03-31T01:41:11.123Z,19.33
2019-03-31T01:43:39.553Z,19.50
2019-03-31T01:46:09.723Z,20.25
2019-03-31T01:48:38.152Z,19.67
2019-03-31T01:51:06.911Z,19.25
2019-03-31T01:53:35.342Z,19.70
2019-03-31T01:56:03.865Z,20.12
2019-03-31T01:58:32.313Z,19.47
2019-03-31T02:01:02.523Z,19.00
2019-03-31T02:03:30.953Z,20.77
2019-03-31T02:05:59.383Z,20.27
2019-03-31T02:08:27.808Z,20.07
2019-03-31T02:10:56.248Z,19.23
2019-03-31T02:13:24.695Z,20.08
2019-03-31T02:15:53.123Z,20.77
2019-03-31T02:18:21.547Z,21.57
2019-03-31T02:20:49.988Z,19.07
2019-03-31T02:23:18.406Z,20.57
2019-03-31T02:25:46.842Z,21.00
2019-03-31T02:28:15.360Z,21.33
2019-03-31T02:30:43.792Z,20.87
2019-03-31T02:33:12.224Z,19.92
2019-03-31T02:35:40.672Z,19.43
2019-03-31T02:38:09.103Z,19.55
2019-03-31T02:40:37.545Z,22.10
2019-03-31T02:43:05.988Z,32.57
2019-03-31T02:45:34.427Z,22.37
2019-03-31T02:48:02.857Z,22.07
2019-03-31T02:50:46.257Z,20.73
2019-03-31T02:53:16.121Z,20.90
2019-03-31T02:55:45.391Z,21.83
2019-03-31T02:58:15.681Z,21.20
2019-03-31T03:00:44.966Z,21.17
2019-03-31T03:03:15.082Z,21.40
2019-03-31T03:05:44.593Z,21.97
2019-03-31T03:08:18.090Z,21.07
2019-03-31T03:11:06.125Z,20.73
2019-03-31T03:13:35.741Z,21.63
2019-03-31T03:16:10.150Z,21.33
2019-03-31T03:18:38.570Z,20.77
2019-03-31T03:21:07.038Z,21.00
2019-03-31T03:23:35.530Z,21.23
2019-03-31T03:26:04.183Z,21.25
2019-03-31T03:28:32.684Z,22.90
2019-03-31T03:31:01.278Z,21.73
2019-03-31T03:33:29.731Z,21.67
2019-03-31T03:35:58.179Z,22.20
2019-03-31T03:38:26.674Z,22.45
2019-03-31T03:40:55.116Z,22.20
2019-03-31T03:43:23.544Z,22.00
2019-03-31T03:45:51.984Z,22.20
2019-03-31T03:48:20.417Z,22.50
2019-03-31T03:50:48.859Z,21.90
2019-03-31T03:53:17.291Z,22.98
2019-03-31T03:55:45.724Z,22.40
2019-03-31T03:58:14.149Z,22.60
2019-03-31T04:00:42.672Z,22.77
2019-03-31T04:03:28.552Z,21.40
2019-03-31T04:05:41.271Z,22.00
2019-03-31T04:08:09.703Z,22.80
2019-03-31T04:10:47.044Z,21.85
2019-03-31T04:13:15.608Z,22.73
2019-03-31T04:15:44.068Z,21.75
2019-03-31T04:18:12.477Z,22.75
2019-03-31T04:20:40.946Z,21.80
2019-03-31T04:23:09.422Z,22.45
2019-03-31T04:25:37.881Z,21.40
2019-03-31T04:28:06.360Z,21.40
2019-03-31T04:30:34.803Z,22.00
2019-03-31T04:33:03.242Z,21.13
2019-03-31T04:35:31.744Z,21.63
2019-03-31T04:38:19.605Z,22.15
2019-03-31T04:40:48.198Z,22.00
2019-03-31T04:43:16.600Z,21.95
2019-03-31T04:45:45.062Z,20.77
2019-03-31T04:48:13.497Z,20.93
2019-03-31T04:50:41.933Z,21.23
2019-03-31T04:53:10.364Z,19.37
2019-03-31T04:55:38.788Z,19.97
2019-03-31T04:58:07.225Z,20.20
2019-03-31T05:00:35.664Z,19.30
2019-03-31T05:03:04.125Z,19.80
2019-03-31T05:05:32.559Z,19.32
2019-03-31T05:08:00.990Z,19.83
2019-03-31T05:10:29.410Z,21.25
2019-03-31T05:12:57.857Z,19.17
2019-03-31T05:15:26.291Z,18.77
2019-03-31T05:17:54.727Z,20.40
2019-03-31T05:20:23.153Z,20.13
2019-03-31T05:22:52.946Z,20.37
2019-03-31T05:25:21.520Z,20.62
2019-03-31T05:27:49.960Z,18.33
2019-03-31T05:30:18.398Z,20.25
2019-03-31T05:32:46.845Z,20.30
2019-03-31T05:35:15.279Z,18.63
2019-03-31T05:37:50.697Z,21.60
2019-03-31T05:40:14.011Z,19.73
2019-03-31T05:42:42.464Z,18.83
2019-03-31T05:45:10.969Z,16.73
2019-03-31T05:47:39.405Z,17.17
2019-03-31T05:50:07.899Z,16.90
2019-03-31T05:52:36.355Z,17.77
2019-03-31T05:55:06.223Z,17.80
2019-03-31T05:57:34.663Z,16.80
2019-03-31T06:00:04.430Z,17.07
2019-03-31T06:02:32.883Z,17.62
2019-03-31T06:05:01.292Z,17.97
2019-03-31T06:07:29.754Z,16.90
2019-03-31T06:09:58.187Z,17.98
2019-03-31T06:12:26.615Z,17.60
2019-03-31T06:14:55.049Z,18.40
2019-03-31T06:17:23.510Z,17.63
2019-03-31T06:19:51.972Z,18.10
2019-03-31T06:22:20.425Z,21.55
2019-03-31T06:24:48.846Z,21.90
2019-03-31T06:27:17.321Z,22.13
2019-03-31T06:29:45.749Z,21.37
2019-03-31T06:32:14.190Z,23.20
2019-03-31T06:34:47.759Z,22.83
2019-03-31T06:37:12.843Z,23.65
2019-03-31T06:39:41.276Z,22.60
2019-03-31T06:42:09.787Z,23.65
2019-03-31T06:44:38.363Z,23.47
2019-03-31T06:47:06.826Z,24.87
2019-03-31T06:49:35.263Z,24.75
2019-03-31T06:52:03.691Z,22.80
2019-03-31T06:54:32.124Z,24.52
2019-03-31T06:57:00.560Z,24.72
2019-03-31T06:59:28.987Z,24.05
2019-03-31T07:01:57.441Z,23.60
2019-03-31T07:04:25.868Z,23.60
2019-03-31T07:06:54.303Z,23.85
2019-03-31T07:09:22.737Z,24.07
2019-03-31T07:11:51.199Z,22.37
2019-03-31T07:14:19.627Z,24.15
2019-03-31T07:16:48.119Z,22.93
2019-03-31T07:19:16.604Z,23.15
2019-03-31T07:21:45.060Z,23.90
2019-03-31T07:24:13.504Z,23.62
2019-03-31T07:26:41.936Z,24.15
2019-03-31T07:29:10.384Z,22.58
2019-03-31T07:31:38.828Z,24.00
2019-03-31T07:34:07.296Z,23.87
2019-03-31T07:36:35.740Z,24.60
2019-03-31T07:39:06.641Z,23.83
2019-03-31T07:41:36.202Z,24.40
2019-03-31T07:44:04.743Z,27.35
2019-03-31T07:46:33.186Z,25.77
2019-03-31T07:49:01.633Z,24.75
2019-03-31T07:51:30.067Z,24.72
2019-03-31T07:53:58.524Z,24.85
2019-03-31T07:56:26.971Z,25.70
2019-03-31T07:58:55.437Z,27.58
2019-03-31T08:01:23.903Z,26.57
2019-03-31T08:03:52.429Z,28.07
2019-03-31T08:06:20.939Z,29.12
2019-03-31T08:08:49.388Z,28.38
2019-03-31T08:11:17.821Z,29.82
2019-03-31T08:13:46.258Z,29.90
2019-03-31T08:16:14.700Z,29.57
2019-03-31T08:18:43.136Z,29.85
2019-03-31T08:21:11.564Z,29.77
2019-03-31T08:23:40.012Z,35.88
2019-03-31T08:26:08.445Z,31.25
2019-03-31T08:28:36.898Z,30.97
2019-03-31T08:31:05.317Z,31.00
2019-03-31T08:33:33.755Z,32.03
2019-03-31T08:36:02.199Z,32.63
2019-03-31T08:38:30.628Z,32.83
2019-03-31T08:40:59.076Z,32.50
2019-03-31T08:43:46.856Z,30.45
2019-03-31T08:46:15.349Z,30.37
2019-03-31T08:48:43.787Z,28.62
2019-03-31T08:51:12.226Z,32.78
2019-03-31T08:53:40.672Z,31.40
2019-03-31T08:56:09.113Z,28.73
2019-03-31T08:58:37.553Z,29.12
2019-03-31T09:04:00.861Z,29.32
2019-03-31T09:06:29.296Z,30.25
2019-03-31T09:08:57.760Z,30.40
2019-03-31T09:11:26.186Z,31.90
2019-03-31T09:13:54.623Z,31.17
2019-03-31T09:16:23.084Z,31.17
2019-03-31T09:18:51.511Z,32.13
2019-03-31T09:21:19.972Z,31.05
2019-03-31T09:23:48.416Z,31.85
2019-03-31T09:26:16.874Z,31.05
2019-03-31T09:28:45.382Z,32.75
2019-03-31T09:31:13.811Z,30.75
2019-03-31T09:33:42.247Z,32.17
2019-03-31T09:36:16.425Z,31.50
2019-03-31T09:38:40.895Z,29.90
2019-03-31T09:41:09.375Z,31.10
2019-03-31T09:43:37.816Z,40.90
2019-03-31T09:46:06.254Z,31.40
2019-03-31T09:48:34.718Z,31.27
2019-03-31T09:51:03.148Z,32.15
2019-03-31T09:53:31.600Z,30.65
2019-03-31T09:56:00.062Z,31.42
2019-03-31T09:58:28.525Z,31.30
2019-03-31T10:00:57.462Z,31.35
2019-03-31T10:03:25.920Z,31.02
2019-03-31T10:05:54.377Z,30.90
2019-03-31T10:08:22.840Z,30.72
2019-03-31T10:10:51.264Z,32.08
2019-03-31T10:13:19.731Z,32.00
2019-03-31T10:15:48.179Z,32.63
2019-03-31T10:18:18.341Z,31.70
2019-03-31T10:20:46.797Z,31.25
2019-03-31T10:23:15.293Z,32.25
2019-03-31T10:25:43.819Z,30.17
2019-03-31T10:28:12.257Z,32.15
2019-03-31T10:30:40.881Z,32.90
2019-03-31T10:33:09.470Z,39.40
2019-03-31T10:35:38.027Z,36.42
2019-03-31T10:38:06.841Z,33.95
2019-03-31T10:40:35.328Z,33.25
2019-03-31T10:43:03.848Z,32.00
2019-03-31T10:45:32.309Z,31.73
2019-03-31T10:48:00.819Z,33.80
2019-03-31T10:50:29.321Z,36.30
2019-03-31T10:52:58.065Z,34.90
2019-03-31T10:55:26.537Z,35.40
2019-03-31T10:57:55.260Z,37.53
2019-03-31T11:00:32.006Z,36.33
2019-03-31T11:03:00.488Z,35.60
2019-03-31T11:05:29.025Z,36.95
2019-03-31T11:07:57.467Z,37.67
2019-03-31T11:10:25.929Z,36.83
2019-03-31T11:12:54.380Z,37.38
2019-03-31T11:15:22.814Z,38.42
2019-03-31T11:17:51.259Z,38.40
2019-03-31T11:20:19.725Z,36.15
2019-03-31T11:23:06.365Z,38.08
2019-03-31T11:25:34.857Z,36.05
2019-03-31T11:28:03.408Z,35.38
2019-03-31T11:30:32.109Z,34.35
2019-03-31T11:33:00.592Z,35.43
2019-03-31T11:35:29.042Z,34.98
2019-03-31T11:37:57.493Z,37.17
2019-03-31T11:40:25.945Z,37.58
2019-03-31T11:42:54.376Z,35.83
2019-03-31T11:45:22.820Z,34.98
2019-03-31T11:47:51.259Z,35.75
2019-03-31T11:50:39.047Z,36.45
2019-03-31T11:53:07.505Z,36.90
2019-03-31T11:55:35.942Z,38.15
2019-03-31T11:58:04.409Z,39.40
2019-03-31T12:00:34.483Z,36.55
2019-03-31T12:03:02.939Z,37.20
2019-03-31T12:05:31.451Z,33.48
2019-03-31T12:07:59.897Z,33.08
2019-03-31T12:10:28.349Z,33.18
2019-03-31T12:12:56.774Z,32.75
2019-03-31T12:15:25.291Z,36.25
2019-03-31T12:17:53.723Z,34.38
2019-03-31T12:20:22.192Z,33.92
2019-03-31T12:22:50.616Z,34.20
2019-03-31T12:25:19.990Z,34.35
2019-03-31T12:28:08.153Z,33.73
2019-03-31T12:30:36.643Z,33.55
2019-03-31T12:33:05.067Z,32.90
2019-03-31T12:35:33.515Z,32.33
2019-03-31T12:38:01.962Z,31.68
2019-03-31T12:40:32.049Z,28.52
2019-03-31T12:43:00.516Z,24.35
2019-03-31T12:45:28.992Z,24.43
2019-03-31T12:48:01.125Z,21.60
2019-03-31T12:50:27.946Z,23.22
2019-03-31T12:53:01.325Z,23.35
2019-03-31T12:55:29.859Z,17.35
2019-03-31T12:57:58.318Z,14.83
2019-03-31T13:00:26.913Z,15.65
2019-03-31T13:03:16.266Z,16.23
2019-03-31T13:05:44.864Z,16.62
2019-03-31T13:08:13.320Z,16.05
2019-03-31T13:10:41.772Z,16.48
2019-03-31T13:13:10.645Z,17.92
2019-03-31T13:15:39.141Z,16.77
2019-03-31T13:18:07.573Z,15.70
2019-03-31T13:20:36.034Z,16.57
2019-03-31T13:23:04.493Z,17.85
2019-03-31T13:25:32.942Z,18.65
2019-03-31T13:28:01.411Z,18.27
2019-03-31T13:30:29.855Z,18.40
2019-03-31T13:32:58.299Z,18.87
2019-03-31T13:35:26.737Z,19.80
2019-03-31T13:37:55.201Z,26.55
2019-03-31T13:40:23.770Z,20.70
2019-03-31T13:42:52.210Z,20.08
2019-03-31T13:45:20.672Z,21.25
2019-03-31T13:47:49.128Z,22.45
2019-03-31T13:50:17.657Z,21.35
2019-03-31T13:52:46.086Z,21.68
2019-03-31T13:55:14.611Z,21.17
2019-03-31T13:57:44.504Z,21.33
2019-03-31T14:00:13.674Z,21.25
2019-03-31T14:02:42.215Z,20.37
2019-03-31T14:05:10.701Z,21.07
2019-03-31T14:07:39.631Z,21.90
2019-03-31T14:10:08.200Z,21.82
2019-03-31T14:12:36.693Z,21.33
2019-03-31T14:15:18.538Z,22.22
2019-03-31T14:17:37.309Z,21.35
2019-03-31T14:20:07.014Z,21.57
2019-03-31T14:22:35.472Z,21.42
2019-03-31T14:25:05.434Z,22.07
2019-03-31T14:27:33.900Z,24.47
2019-03-31T14:30:02.412Z,21.35
2019-03-31T14:32:30.897Z,20.55
2019-03-31T14:34:59.353Z,20.62
2019-03-31T14:37:28.244Z,20.37
2019-03-31T14:39:56.677Z,18.98
2019-03-31T14:42:25.148Z,18.32
2019-03-31T14:45:14.451Z,19.25
2019-03-31T14:47:42.905Z,21.55
2019-03-31T14:50:14.425Z,21.12
2019-03-31T14:52:42.897Z,22.77
2019-03-31T14:55:11.338Z,21.75
2019-03-31T14:57:39.807Z,22.90
2019-03-31T15:00:15.164Z,21.30
2019-03-31T15:02:38.520Z,19.85
2019-03-31T15:05:07.027Z,19.60
2019-03-31T15:07:35.486Z,19.00
2019-03-31T15:10:05.998Z,19.25
2019-03-31T15:12:34.443Z,20.82
2019-03-31T15:15:02.927Z,18.75
2019-03-31T15:17:31.356Z,18.12
2019-03-31T15:20:19.139Z,19.07
2019-03-31T15:22:47.597Z,21.30
2019-03-31T15:25:16.040Z,19.92
2019-03-31T15:27:44.492Z,18.27
2019-03-31T15:30:13.288Z,20.25
2019-03-31T15:32:41.719Z,19.12
2019-03-31T15:35:10.164Z,20.00
2019-03-31T15:37:38.649Z,18.57
2019-03-31T15:40:07.155Z,19.10
2019-03-31T15:42:35.632Z,17.95
2019-03-31T15:45:05.409Z,17.92
2019-03-31T15:47:34.268Z,17.85
2019-03-31T15:50:02.785Z,16.75
2019-03-31T15:52:31.298Z,16.20
2019-03-31T15:54:59.742Z,14.73
2019-03-31T15:57:28.212Z,13.98
2019-03-31T15:59:56.681Z,13.70
2019-03-31T16:02:26.765Z,13.43
2019-03-31T16:04:55.200Z,15.40
2019-03-31T16:07:46.288Z,16.30
2019-03-31T16:10:15.585Z,11.57
2019-03-31T16:12:44.085Z,11.55
2019-03-31T16:15:14.096Z,10.15
2019-03-31T16:17:42.622Z,10.32
2019-03-31T16:20:11.444Z,10.88
2019-03-31T16:22:40.096Z,11.35
2019-03-31T16:25:13.265Z,10.75
2019-03-31T16:27:42.118Z,10.58
2019-03-31T16:30:11.141Z,10.40
2019-03-31T16:32:39.603Z,9.43
2019-03-31T16:35:08.154Z,9.35
2019-03-31T16:37:36.586Z,8.80
2019-03-31T16:40:07.753Z,8.60
2019-03-31T16:42:36.213Z,8.30
2019-03-31T16:45:07.216Z,8.80
2019-03-31T16:47:35.731Z,7.53
2019-03-31T16:50:06.181Z,6.83
2019-03-31T16:52:34.637Z,6.90
2019-03-31T16:55:03.476Z,6.85
2019-03-31T16:57:32.007Z,7.15
2019-03-31T17:00:00.899Z,6.87
2019-03-31T17:02:29.331Z,6.42
2019-03-31T17:04:57.783Z,6.28
2019-03-31T17:07:26.230Z,5.62
2019-03-31T17:09:54.657Z,6.37
2019-03-31T17:12:23.160Z,6.25
2019-03-31T17:14:51.659Z,6.85
2019-03-31T17:17:20.298Z,7.72
2019-03-31T17:19:48.789Z,6.55
2019-03-31T17:22:17.245Z,6.55
2019-03-31T17:24:45.727Z,8.63
2019-03-31T17:27:14.397Z,5.78
2019-03-31T17:29:43.016Z,5.80
2019-03-31T17:32:11.549Z,4.58
2019-03-31T17:34:39.988Z,5.17
2019-03-31T17:37:08.489Z,5.08
2019-03-31T17:39:37.008Z,5.40
2019-03-31T17:42:05.558Z,5.17
2019-03-31T17:44:34.013Z,6.65
2019-03-31T17:47:02.456Z,5.60
2019-03-31T17:49:30.902Z,5.62
2019-03-31T17:52:01.213Z,6.37
2019-03-31T17:54:29.494Z,5.83
2019-03-31T17:56:58.018Z,6.62
2019-03-31T17:59:26.514Z,6.10
2019-03-31T18:01:55.090Z,5.08
2019-03-31T18:04:23.739Z,4.92
2019-03-31T18:06:52.281Z,5.80
2019-03-31T18:09:20.838Z,5.08
2019-03-31T18:11:49.297Z,5.05
2019-03-31T18:14:17.750Z,5.35
2019-03-31T18:16:51.528Z,5.47
2019-03-31T18:19:20.114Z,6.42
2019-03-31T18:21:51.811Z,10.98
2019-03-31T18:24:20.325Z,27.82
2019-03-31T18:26:49.040Z,14.73
2019-03-31T18:29:17.555Z,8.60
2019-03-31T18:31:46.093Z,6.95
2019-03-31T18:34:14.657Z,5.90
2019-03-31T18:36:43.179Z,6.55
2019-03-31T18:39:11.651Z,6.62
2019-03-31T18:41:40.110Z,7.40
2019-03-31T18:44:08.544Z,7.25
2019-03-31T18:46:37.013Z,7.80
2019-03-31T18:49:24.863Z,7.90
2019-03-31T18:51:53.302Z,8.43
2019-03-31T18:54:26.743Z,7.83
2019-03-31T18:56:59.616Z,8.13
2019-03-31T18:59:38.657Z,8.50
2019-03-31T19:02:11.568Z,9.75
2019-03-31T19:04:47.721Z,10.00
2019-03-31T19:07:20.276Z,9.23
2019-03-31T19:09:53.361Z,8.70
2019-03-31T19:12:39.733Z,8.65
2019-03-31T19:15:26.070Z,7.53
2019-03-31T19:18:08.486Z,6.28
2019-03-31T19:20:41.344Z,6.05
2019-03-31T19:23:27.909Z,5.00
2019-03-31T19:26:14.411Z,5.62
2019-03-31T19:28:44.517Z,5.33
2019-03-31T19:31:29.556Z,5.97
2019-03-31T19:33:59.641Z,6.47
2019-03-31T19:36:32.446Z,7.95
2019-03-31T19:39:08.347Z,7.87
2019-03-31T19:41:41.533Z,9.78
2019-03-31T19:44:17.962Z,19.15
2019-03-31T19:46:53.905Z,20.60
2019-03-31T19:49:24.312Z,13.72
2019-03-31T19:51:57.359Z,8.98
2019-03-31T19:54:39.525Z,6.78
2019-03-31T19:57:12.354Z,6.62
2019-03-31T19:59:51.151Z,6.30
2019-03-31T20:02:21.240Z,5.83
2019-03-31T20:05:06.320Z,6.00
2019-03-31T20:07:52.938Z,6.47
2019-03-31T20:10:23.037Z,6.72
2019-03-31T20:12:59.230Z,6.70
2019-03-31T20:15:32.188Z,6.80
2019-03-31T20:18:18.508Z,6.87
2019-03-31T20:20:57.304Z,7.53
2019-03-31T20:23:30.061Z,7.20
2019-03-31T20:26:02.935Z,7.37
2019-03-31T20:28:42.170Z,7.10
2019-03-31T20:31:15.214Z,6.80
2019-03-31T20:33:48.018Z,6.95
2019-03-31T20:36:27.308Z,7.15
2019-03-31T20:39:03.398Z,7.47
2019-03-31T20:41:39.238Z,7.17
2019-03-31T20:44:07.708Z,7.00
2019-03-31T20:46:36.168Z,6.17
2019-03-31T20:49:04.636Z,6.17
2019-03-31T20:51:33.118Z,6.87
2019-03-31T20:54:01.582Z,6.50
2019-03-31T20:56:30.027Z,6.65
2019-03-31T20:58:58.495Z,6.60
2019-03-31T21:01:26.935Z,5.50
2019-03-31T21:03:55.406Z,6.40
2019-03-31T21:06:43.291Z,6.08
2019-03-31T21:09:11.746Z,6.15
2019-03-31T21:11:40.206Z,6.60
2019-03-31T21:14:08.649Z,6.50
2019-03-31T21:16:37.087Z,6.10
2019-03-31T21:19:05.543Z,6.63
2019-03-31T21:21:53.333Z,6.87
2019-03-31T21:24:21.804Z,7.27
2019-03-31T21:26:50.253Z,7.13
2019-03-31T21:29:18.705Z,6.47
2019-03-31T21:31:47.139Z,6.60
2019-03-31T21:34:15.582Z,6.10
2019-03-31T21:36:44.011Z,6.40
2019-03-31T21:39:12.480Z,6.20
2019-03-31T21:41:40.945Z,6.60
2019-03-31T21:44:09.375Z,6.70
2019-03-31T21:46:37.830Z,14.10
2019-03-31T21:49:06.300Z,14.47
2019-03-31T21:51:34.754Z,8.53
2019-03-31T21:54:03.217Z,6.10
2019-03-31T21:56:31.672Z,6.40
2019-03-31T21:59:02.780Z,6.00
2019-03-31T22:01:31.670Z,6.00
2019-03-31T22:04:00.091Z,6.23
2019-03-31T22:06:28.515Z,5.50
2019-03-31T22:08:56.950Z,6.13
2019-03-31T22:11:25.941Z,6.57
2019-03-31T22:13:54.399Z,6.13
2019-03-31T22:16:42.207Z,5.83
2019-03-31T22:19:10.652Z,5.70
2019-03-31T22:21:39.082Z,5.77
2019-03-31T22:24:07.518Z,5.93
2019-03-31T22:26:35.948Z,5.93
2019-03-31T22:29:04.472Z,6.13
2019-03-31T22:31:32.904Z,5.90
2019-03-31T22:34:01.343Z,5.83
2019-03-31T22:36:29.771Z,5.37
2019-03-31T22:38:58.193Z,5.40
2019-03-31T22:41:26.636Z,5.70
2019-03-31T22:43:55.331Z,5.03
2019-03-31T22:46:23.756Z,5.43
2019-03-31T22:48:52.189Z,5.53
2019-03-31T22:51:20.629Z,4.87
2019-03-31T22:53:49.053Z,5.03
2019-03-31T22:56:17.484Z,4.50
2019-03-31T22:58:46.728Z,4.93
2019-03-31T23:01:15.183Z,4.97
2019-03-31T23:03:43.688Z,4.23
2019-03-31T23:06:12.117Z,4.17
2019-03-31T23:08:40.530Z,4.57
2019-03-31T23:11:08.980Z,4.17
2019-03-31T23:13:37.425Z,4.57
2019-03-31T23:16:05.851Z,3.93
2019-03-31T23:18:34.269Z,4.10
2019-03-31T23:21:02.719Z,4.13
2019-03-31T23:23:31.140Z,3.70
2019-03-31T23:25:59.584Z,4.80
2019-03-31T23:28:28.009Z,4.00
2019-03-31T23:30:56.439Z,3.53
2019-03-31T23:33:24.859Z,3.50
2019-03-31T23:35:53.298Z,3.33
2019-03-31T23:38:21.724Z,3.60
2019-03-31T23:41:09.767Z,4.37
2019-03-31T23:43:38.217Z,3.77
2019-03-31T23:46:06.644Z,3.27
2019-03-31T23:48:35.070Z,3.13
2019-03-31T23:51:03.524Z,3.00
2019-03-31T23:53:31.958Z,2.93
2019-03-31T23:56:00.399Z,3.63
2019-03-31T23:58:28.843Z,3.50
